Time;durP1;ratioP1;P1;durP2;ratioP2;P2;SDS_P1;SDS_P2;PMS_P1;PMS_P2;Temp;Humidity;BMP_temperature;BMP_pressure;BME280_temperature;BME280_humidity;BME280_pressure;Samples;Min_cycle;Max_cycle;Signal;HPM_P1;HPM_P2
2021/12/05 00:18:45;;;;;;;60.05;29.52;;;;;;;4.41;94.16;94429.19;5040039;27;20210;-70
2021/12/05 00:24:12;;;;;;;51.90;25.77;;;;;;;4.37;94.12;94435.13;4977985;28;20205;-70
2021/12/05 00:26:39;;;;;;;43.55;25.33;;;;;;;4.14;93.82;94439.78;5028180;27;20198;-70
2021/12/05 00:29:18;;;;;;;51.92;27.00;;;;;;;4.07;94.48;94432.34;5045434;27;20203;-70
2021/12/05 00:32:04;;;;;;;49.75;25.95;;;;;;;4.06;95.15;94435.72;5044830;27;20203;-70
2021/12/05 00:38:03;;;;;;;55.67;27.38;;;;;;;4.19;94.37;94433.81;5039858;27;20214;-70
2021/12/05 00:40:55;;;;;;;50.63;27.63;;;;;;;4.13;94.50;94433.09;5047840;27;20841;-70
2021/12/05 01:00:28;;;;;;;48.67;22.50;;;;;;;4.01;92.38;94414.84;5063177;27;20263;-71
2021/12/05 01:03:15;;;;;;;47.05;21.17;;;;;;;3.66;94.28;94407.97;5046625;27;20235;-70
2021/12/05 01:11:34;;;;;;;44.33;21.45;;;;;;;3.89;94.31;94405.06;5015575;27;20697;-70
2021/12/05 01:14:12;;;;;;;47.35;23.15;;;;;;;3.89;94.05;94397.50;5038733;27;20299;-70
2021/12/05 01:16:40;;;;;;;40.13;21.73;;;;;;;3.79;93.80;94401.03;5040104;27;20226;-71
2021/12/05 01:19:10;;;;;;;47.47;22.88;;;;;;;3.68;94.19;94397.91;5040936;27;20578;-70
2021/12/05 01:21:40;;;;;;;37.95;20.77;;;;;;;3.89;93.57;94400.03;5046647;27;20215;-69
2021/12/05 01:24:18;;;;;;;40.30;21.55;;;;;;;3.87;93.66;94394.19;5040977;27;20214;-69
2021/12/05 01:26:53;;;;;;;39.53;21.63;;;;;;;3.71;93.66;94392.81;5038673;27;20565;-70
2021/12/05 01:29:30;;;;;;;45.88;22.38;;;;;;;3.48;94.18;94395.72;5042499;27;20230;-70
2021/12/05 01:32:08;;;;;;;40.72;22.55;;;;;;;3.27;95.12;94386.84;5040385;27;20190;-70
2021/12/05 01:34:45;;;;;;;48.10;23.10;;;;;;;3.08;96.24;94376.28;5040065;27;20207;-70
2021/12/05 01:37:24;;;;;;;45.75;23.35;;;;;;;3.13;96.19;94373.72;5038856;27;20580;-70
2021/12/05 01:40:02;;;;;;;41.08;22.40;;;;;;;3.25;96.61;94377.69;5043230;27;20203;-70
2021/12/05 01:48:52;;;;;;;49.40;24.50;;;;;;;3.81;94.21;94363.31;5039210;27;20199;-70
2021/12/05 01:59:57;;;;;;;43.63;23.40;;;;;;;3.89;92.07;94379.09;5028988;27;20594;-70
2021/12/05 02:08:32;;;;;;;46.65;22.77;;;;;;;4.04;92.85;94384.63;5041287;27;20230;-70
2021/12/05 02:16:43;;;;;;;42.40;21.75;;;;;;;4.10;92.01;94384.53;5041956;27;20631;-70
2021/12/05 02:30:58;;;;;;;49.72;22.40;;;;;;;3.99;94.62;94414.06;5051044;27;20291;-70
2021/12/05 02:33:56;;;;;;;33.27;18.07;;;;;;;3.74;96.06;94403.63;5044594;27;20665;-70
2021/12/05 02:39:25;;;;;;;41.83;18.15;;;;;;;3.89;96.32;94392.47;5057608;27;21145;-71
2021/12/05 02:41:54;;;;;;;33.30;19.05;;;;;;;3.93;96.72;94388.22;5037480;27;20226;-70
2021/12/05 02:44:24;;;;;;;37.33;19.03;;;;;;;4.02;96.74;94381.31;5042484;27;20214;-70
2021/12/05 02:46:58;;;;;;;36.57;17.80;;;;;;;4.16;96.21;94385.28;5037195;27;20202;-70
2021/12/05 02:49:27;;;;;;;36.83;19.13;;;;;;;4.14;96.12;94381.94;5037152;27;20207;-70
2021/12/05 02:51:58;;;;;;;38.90;19.10;;;;;;;4.31;95.85;94379.91;5037255;27;20290;-70
2021/12/05 02:54:29;;;;;;;37.97;18.60;;;;;;;4.39;94.61;94385.63;5041983;27;20659;-71
2021/12/05 02:56:57;;;;;;;30.47;18.10;;;;;;;4.41;95.11;94376.38;5043253;27;20240;-70
2021/12/05 02:59:31;;;;;;;36.67;17.77;;;;;;;4.57;94.72;94377.69;5047015;27;20207;-70
2021/12/05 03:02:04;;;;;;;31.45;17.73;;;;;;;4.48;94.85;94382.91;5042285;27;20593;-70
2021/12/05 03:04:32;;;;;;;36.70;17.10;;;;;;;4.66;94.36;94369.94;5037142;27;20662;-71
2021/12/05 03:07:04;;;;;;;40.77;19.07;;;;;;;4.66;94.22;94377.50;5037368;27;20210;-71
2021/12/05 03:09:33;;;;;;;35.60;17.48;;;;;;;4.60;94.60;94371.75;5042274;27;20211;-72
2021/12/05 03:12:00;;;;;;;34.92;19.25;;;;;;;4.46;94.85;94372.03;5040448;27;20550;-71
2021/12/05 03:14:27;;;;;;;39.83;19.60;;;;;;;4.63;95.07;94372.53;5043071;27;20263;-69
2021/12/05 03:16:54;;;;;;;38.35;20.23;;;;;;;4.62;94.64;94365.84;5047115;27;20235;-69
2021/12/05 03:19:21;;;;;;;34.88;18.13;;;;;;;4.68;94.55;94370.75;5039769;27;20760;-70
2021/12/05 03:21:51;;;;;;;34.20;18.48;;;;;;;4.65;94.45;94375.00;5043934;27;20279;-69
2021/12/05 03:24:23;;;;;;;34.10;18.83;;;;;;;4.76;94.02;94363.00;5042558;27;20722;-70
2021/12/05 03:26:54;;;;;;;39.78;20.70;;;;;;;4.77;94.25;94365.50;5040169;27;20682;-71
2021/12/05 03:29:23;;;;;;;33.25;18.48;;;;;;;4.76;93.48;94363.84;5041628;27;20195;-70
2021/12/05 03:31:51;;;;;;;41.50;19.23;;;;;;;4.75;93.55;94357.16;5045781;27;20299;-71
2021/12/05 03:34:20;;;;;;;32.45;17.30;;;;;;;4.79;93.32;94357.91;5047782;27;20259;-72
2021/12/05 03:36:48;;;;;;;33.08;19.08;;;;;;;4.81;93.25;94367.94;5041526;27;20268;-71
2021/12/05 03:39:17;;;;;;;31.77;17.83;;;;;;;4.45;93.23;94370.41;5040119;27;20262;-72
2021/12/05 03:41:45;;;;;;;40.85;17.95;;;;;;;4.34;95.09;94358.06;5041168;27;20950;-72
2021/12/05 03:44:16;;;;;;;35.85;19.40;;;;;;;4.51;95.03;94360.19;5047948;27;20206;-69
2021/12/05 03:46:43;;;;;;;36.88;18.88;;;;;;;4.35;94.85;94366.44;5055796;27;20267;-72
2021/12/05 03:49:12;;;;;;;39.60;18.42;;;;;;;4.19;95.83;94355.88;5039565;27;20255;-71
2021/12/05 03:51:42;;;;;;;41.05;18.58;;;;;;;4.30;96.09;94363.19;5039775;27;20291;-71
2021/12/05 03:54:09;;;;;;;37.42;19.67;;;;;;;4.17;97.00;94361.78;5046616;27;20199;-71
2021/12/05 03:56:37;;;;;;;37.78;20.27;;;;;;;4.02;98.60;94352.84;5045591;27;20283;-71
2021/12/05 03:59:06;;;;;;;35.20;18.10;;;;;;;4.33;98.13;94363.13;5042063;27;20202;-70
2021/12/05 04:01:36;;;;;;;33.77;18.17;;;;;;;4.45;96.80;94365.38;5043564;27;20199;-70
2021/12/05 04:04:04;;;;;;;34.83;17.45;;;;;;;4.51;95.83;94367.75;5043949;27;20203;-71
2021/12/05 04:06:32;;;;;;;35.22;18.98;;;;;;;4.48;95.87;94365.28;5042826;27;20199;-71
2021/12/05 04:09:01;;;;;;;34.20;17.20;;;;;;;4.54;95.83;94376.91;5045036;27;20223;-71
2021/12/05 04:11:36;;;;;;;34.13;18.50;;;;;;;4.61;95.38;94376.78;5044821;27;20632;-72
2021/12/05 04:14:05;;;;;;;34.28;18.25;;;;;;;4.68;94.81;94375.78;5039655;27;20346;-70
2021/12/05 04:16:32;;;;;;;39.72;20.30;;;;;;;4.82;94.53;94372.94;5041973;27;20283;-70
2021/12/05 04:19:00;;;;;;;41.80;21.50;;;;;;;4.49;96.09;94373.66;5039302;27;20657;-70
2021/12/05 04:21:29;;;;;;;35.05;19.50;;;;;;;4.56;96.16;94363.44;5038665;27;20339;-71
2021/12/05 04:23:58;;;;;;;38.92;20.23;;;;;;;4.59;96.54;94370.94;5041617;27;20645;-71
2021/12/05 04:26:25;;;;;;;46.15;22.33;;;;;;;4.57;95.80;94374.34;5042867;27;20219;-71
2021/12/05 04:28:52;;;;;;;41.75;24.25;;;;;;;4.56;96.20;94386.09;5040136;27;20231;-70
2021/12/05 04:31:21;;;;;;;43.83;24.48;;;;;;;4.60;96.42;94382.66;5041608;27;20266;-70
2021/12/05 04:33:48;;;;;;;55.25;27.73;;;;;;;4.67;96.09;94380.84;5039588;27;20572;-70
2021/12/05 04:36:17;;;;;;;49.05;28.52;;;;;;;4.85;95.47;94382.13;5039348;27;20203;-70
2021/12/05 04:38:44;;;;;;;55.85;28.70;;;;;;;4.82;95.29;94387.22;5041363;27;20881;-72
2021/12/05 04:41:11;;;;;;;57.42;29.92;;;;;;;4.91;95.10;94384.50;5045599;27;20294;-70
2021/12/05 04:43:39;;;;;;;60.00;29.40;;;;;;;5.12;94.52;94389.03;5049076;27;20227;-69
2021/12/05 04:46:08;;;;;;;55.17;27.77;;;;;;;5.20;93.15;94389.69;5039341;27;20541;-70
2021/12/05 04:48:35;;;;;;;56.15;27.90;;;;;;;5.26;93.14;94388.72;5040206;27;20740;-70
2021/12/05 04:51:03;;;;;;;52.15;29.33;;;;;;;5.06;93.85;94396.72;5039463;27;20222;-70
2021/12/05 04:53:31;;;;;;;56.45;30.75;;;;;;;4.99;93.42;94400.25;5040875;27;20211;-70
2021/12/05 04:55:58;;;;;;;53.80;29.80;;;;;;;5.08;93.36;94400.06;5037821;27;20260;-70
2021/12/05 04:58:26;;;;;;;59.42;32.50;;;;;;;5.11;93.88;94394.94;5040197;27;20316;-69
2021/12/05 05:00:56;;;;;;;60.55;32.90;;;;;;;5.19;93.45;94402.34;5037306;27;20240;-70
2021/12/05 05:03:23;;;;;;;52.33;30.42;;;;;;;5.16;93.35;94412.47;5039040;27;21703;-70
2021/12/05 05:05:55;;;;;;;52.20;29.42;;;;;;;5.29;93.44;94404.59;5049801;27;20219;-70
2021/12/05 05:08:22;;;;;;;46.63;28.48;;;;;;;5.45;92.64;94410.91;5038077;27;20223;-70
2021/12/05 05:10:51;;;;;;;57.58;30.75;;;;;;;5.20;92.21;94409.81;5041946;27;20268;-70
2021/12/05 05:13:18;;;;;;;50.55;30.02;;;;;;;5.22;93.54;94413.13;5040942;27;20246;-70
2021/12/05 05:15:45;;;;;;;47.40;28.75;;;;;;;5.28;93.49;94415.53;5038520;27;20211;-70
2021/12/05 05:18:12;;;;;;;50.53;28.63;;;;;;;5.33;93.48;94410.38;5041751;27;20673;-70
2021/12/05 05:20:48;;;;;;;49.73;27.60;;;;;;;5.20;94.04;94411.53;5037927;27;20211;-70
2021/12/05 05:23:30;;;;;;;47.05;27.58;;;;;;;5.27;93.33;94415.56;5043009;27;20238;-69
2021/12/05 05:39:58;;;;;;;41.67;21.65;;;;;;;5.16;94.92;94418.34;5045032;27;20297;-71
2021/12/05 05:45:43;;;;;;;37.92;21.65;;;;;;;5.34;94.01;94412.03;5045721;27;20282;-71
2021/12/05 05:50:56;;;;;;;34.95;20.73;;;;;;;4.99;96.60;94417.88;5042374;27;20207;-70
2021/12/05 05:53:23;;;;;;;36.97;19.45;;;;;;;4.92;96.59;94407.13;5048584;27;20255;-72
2021/12/05 05:55:51;;;;;;;36.58;19.65;;;;;;;4.85;97.64;94408.13;5037872;27;20207;-71
2021/12/05 05:58:23;;;;;;;34.42;18.52;;;;;;;4.85;98.49;94397.22;5044794;27;20582;-71
2021/12/05 06:01:00;;;;;;;39.63;19.03;;;;;;;4.84;98.10;94395.56;5044487;27;20878;-69
2021/12/05 06:03:27;;;;;;;33.58;17.48;;;;;;;4.84;98.84;94405.63;5039802;27;20720;-69
2021/12/05 06:05:56;;;;;;;34.90;18.00;;;;;;;4.77;99.31;94410.78;5037681;27;20698;-70
2021/12/05 06:08:26;;;;;;;30.93;18.13;;;;;;;4.92;98.87;94413.84;5040195;27;21078;-70
2021/12/05 06:10:53;;;;;;;40.25;18.52;;;;;;;5.07;97.48;94423.56;5038665;27;20207;-70
2021/12/05 06:13:21;;;;;;;28.38;16.65;;;;;;;5.12;97.67;94421.78;5041202;27;20317;-71
2021/12/05 06:15:49;;;;;;;33.97;18.20;;;;;;;5.14;97.66;94427.63;5037241;27;20203;-71
2021/12/05 06:18:16;;;;;;;34.13;19.02;;;;;;;5.21;97.73;94431.63;5040880;27;20214;-71
2021/12/05 06:20:43;;;;;;;35.78;20.35;;;;;;;5.30;96.92;94433.94;5042005;27;20199;-69
2021/12/05 06:23:12;;;;;;;48.28;22.50;;;;;;;5.46;96.64;94422.63;5038324;27;20263;-71
2021/12/05 06:25:42;;;;;;;39.55;21.02;;;;;;;5.54;95.30;94429.19;5038006;27;20621;-70
2021/12/05 06:28:12;;;;;;;38.53;21.92;;;;;;;5.69;94.97;94438.91;5037180;27;20946;-70
2021/12/05 06:30:48;;;;;;;42.60;21.65;;;;;;;5.81;94.23;94446.16;5041877;27;20221;-72
2021/12/05 06:39:18;;;;;;;37.55;23.05;;;;;;;6.01;92.02;94474.25;5037351;27;20251;-71
2021/12/05 06:42:19;;;;;;;40.35;24.20;;;;;;;5.55;94.28;94476.22;5044283;27;20210;-73
2021/12/05 06:47:32;;;;;;;45.28;23.80;;;;;;;5.79;94.34;94485.69;5045445;27;20267;-70
2021/12/05 06:50:00;;;;;;;49.72;25.98;;;;;;;5.96;93.58;94483.63;5041230;27;20235;-70
2021/12/05 06:52:27;;;;;;;52.25;28.83;;;;;;;6.01;92.90;94491.91;5042261;27;20210;-70
2021/12/05 06:54:54;;;;;;;59.15;31.23;;;;;;;6.25;91.17;94492.97;5041630;27;20218;-70
2021/12/05 06:57:21;;;;;;;57.55;29.67;;;;;;;6.27;91.10;94493.75;5041847;27;20207;-71
2021/12/05 06:59:49;;;;;;;57.92;31.15;;;;;;;6.40;89.77;94499.31;5041181;27;20195;-70
2021/12/05 07:02:18;;;;;;;72.40;35.30;;;;;;;6.47;89.85;94486.47;5048816;27;20681;-71
2021/12/05 07:05:00;;;;;;;66.57;36.92;;;;;;;6.53;89.41;94489.72;5039971;27;20764;-69
2021/12/05 07:07:29;;;;;;;65.40;34.75;;;;;;;6.26;89.35;94496.31;5040834;27;20295;-72
2021/12/05 07:09:56;;;;;;;70.97;36.88;;;;;;;6.06;91.14;94495.16;5051794;27;20203;-70
2021/12/05 07:15:13;;;;;;;73.50;37.53;;;;;;;6.04;91.88;94501.91;5041389;27;20255;-69
2021/12/05 07:20:23;;;;;;;57.22;32.72;;;;;;;6.21;92.30;94498.13;5041427;27;20209;-69
2021/12/05 07:23:06;;;;;;;55.65;31.25;;;;;;;6.37;91.59;94489.31;5041349;27;20381;-70
2021/12/05 07:25:43;;;;;;;60.15;31.35;;;;;;;6.55;91.22;94496.38;5042879;27;20207;-71
2021/12/05 07:42:01;;;;;;;44.47;24.80;;;;;;;6.51;90.45;94471.25;5039960;27;20566;-71
2021/12/05 07:44:27;;;;;;;51.38;27.40;;;;;;;6.28;91.58;94469.34;5040348;27;20234;-70
2021/12/05 07:46:55;;;;;;;43.45;24.77;;;;;;;6.08;90.97;94460.63;5045989;27;20576;-71
2021/12/05 07:49:22;;;;;;;48.45;27.17;;;;;;;5.84;92.51;94466.25;5039680;27;20203;-70
2021/12/05 07:51:51;;;;;;;49.08;24.58;;;;;;;6.12;92.43;94477.34;5041580;27;20244;-72
2021/12/05 07:54:29;;;;;;;44.83;26.23;;;;;;;6.20;91.42;94473.75;5049064;27;20558;-71
2021/12/05 07:57:05;;;;;;;40.03;22.58;;;;;;;5.98;92.29;94474.31;5054836;27;20205;-71
2021/12/05 07:59:45;;;;;;;42.30;21.05;;;;;;;6.28;91.88;94469.34;5041874;27;20220;-71
2021/12/05 08:16:02;;;;;;;35.25;18.45;;;;;;;6.61;89.80;94488.66;5043392;27;20637;-68
2021/12/05 08:18:30;;;;;;;36.80;19.45;;;;;;;6.57;90.94;94481.19;5047651;27;20602;-71
2021/12/05 08:20:59;;;;;;;43.80;24.65;;;;;;;6.61;90.15;94496.22;5045533;27;20199;-69
2021/12/05 08:23:28;;;;;;;50.33;26.05;;;;;;;6.69;90.16;94486.72;5049953;27;20570;-70
2021/12/05 08:26:04;;;;;;;40.75;23.25;;;;;;;6.76;90.21;94484.84;5041506;27;20218;-70
2021/12/05 08:28:48;;;;;;;39.05;21.85;;;;;;;6.82;90.01;94493.09;5043250;27;20653;-69
2021/12/05 08:31:24;;;;;;;56.92;31.17;;;;;;;7.02;89.35;94489.16;5039666;27;20207;-70
2021/12/05 08:34:04;;;;;;;38.95;21.95;;;;;;;7.11;88.79;94487.22;5046981;27;20210;-71
2021/12/05 08:39:59;;;;;;;43.42;21.55;;;;;;;7.43;86.40;94486.22;5138461;27;20546;-70
2021/12/05 09:26:50;;;;;;;37.88;20.45;;;;;;;7.51;86.04;94412.69;5116692;28;20216;-70
2021/12/05 10:10:54;;;;;;;35.03;20.33;;;;;;;9.17;81.86;94349.34;5097620;27;20193;-70
2021/12/05 10:13:28;;;;;;;39.90;22.60;;;;;;;9.16;79.91;94341.78;5101764;28;21244;-72
2021/12/05 10:16:09;;;;;;;38.58;21.42;;;;;;;9.42;81.73;94354.25;5102747;28;20275;-71
2021/12/05 10:38:27;;;;;;;34.08;21.42;;;;;;;10.60;77.32;94324.69;5101229;28;20678;-71
2021/12/05 10:41:01;;;;;;;32.65;19.25;;;;;;;10.56;75.16;94316.38;5102378;27;20205;-70
2021/12/05 10:43:31;;;;;;;35.25;19.05;;;;;;;10.38;74.58;94304.53;5101591;28;20704;-70
2021/12/05 10:46:03;;;;;;;32.28;17.38;;;;;;;10.30;73.51;94291.34;5102233;28;20737;-70
2021/12/05 10:48:33;;;;;;;30.50;17.95;;;;;;;10.31;75.31;94302.31;5101618;28;20205;-71
2021/12/05 10:51:04;;;;;;;26.65;17.33;;;;;;;10.15;75.22;94297.88;5101198;28;20254;-71
2021/12/05 10:53:38;;;;;;;28.27;16.70;;;;;;;9.99;75.42;94299.44;5102351;28;20234;-71
2021/12/05 10:56:14;;;;;;;55.97;25.98;;;;;;;10.15;74.98;94295.31;5102286;28;20192;-71
2021/12/05 10:58:47;;;;;;;30.13;18.23;;;;;;;10.17;74.47;94280.84;5101352;28;20220;-71
2021/12/05 11:01:24;;;;;;;21.92;14.15;;;;;;;10.38;74.20;94283.38;5100358;28;20208;-70
2021/12/05 11:03:55;;;;;;;30.77;15.05;;;;;;;10.32;73.71;94278.56;5101409;28;20212;-70
2021/12/05 11:06:36;;;;;;;20.88;13.05;;;;;;;10.19;73.75;94276.56;5101969;28;20223;-70
2021/12/05 11:09:08;;;;;;;24.42;14.50;;;;;;;10.01;75.54;94272.28;5101894;28;20220;-69
2021/12/05 11:11:37;;;;;;;27.67;18.08;;;;;;;10.16;74.37;94275.84;5100503;28;20212;-71
2021/12/05 11:14:08;;;;;;;23.88;13.63;;;;;;;10.16;74.54;94256.34;5101141;28;20200;-71
2021/12/05 11:16:39;;;;;;;21.05;13.10;;;;;;;10.03;74.06;94257.81;5101156;28;20664;-70
2021/12/05 11:19:19;;;;;;;20.33;13.23;;;;;;;9.98;74.48;94249.56;5101480;28;20355;-69
2021/12/05 11:21:54;;;;;;;18.08;11.80;;;;;;;9.92;75.18;94242.22;5100704;28;20822;-70
2021/12/05 11:24:25;;;;;;;22.25;11.85;;;;;;;9.84;74.76;94236.66;5101269;28;20269;-72
2021/12/05 11:27:17;;;;;;;19.85;12.15;;;;;;;9.99;74.78;94232.63;5100698;28;20289;-69
2021/12/05 11:29:59;;;;;;;20.40;11.93;;;;;;;9.96;74.81;94237.81;5101784;28;20567;-70
2021/12/05 11:32:33;;;;;;;15.63;10.25;;;;;;;9.99;74.45;94238.53;5100779;28;20262;-71
2021/12/05 11:35:15;;;;;;;12.95;8.98;;;;;;;10.00;74.43;94240.16;5100358;28;20203;-71
2021/12/05 11:37:59;;;;;;;20.83;11.07;;;;;;;9.78;74.99;94229.31;5101340;28;20237;-70
2021/12/05 11:40:28;;;;;;;15.57;10.10;;;;;;;9.89;74.58;94222.06;5100397;28;20207;-71
2021/12/05 11:42:59;;;;;;;17.30;11.80;;;;;;;9.81;75.40;94214.78;5100675;28;20204;-71
2021/12/05 11:45:28;;;;;;;18.45;10.93;;;;;;;9.71;75.05;94212.72;5100322;28;20679;-70
2021/12/05 11:47:55;;;;;;;15.60;9.85;;;;;;;9.83;74.89;94207.94;5100845;28;20736;-71
2021/12/05 11:50:33;;;;;;;14.75;9.73;;;;;;;9.86;74.27;94205.25;5100551;28;20205;-70
2021/12/05 11:53:02;;;;;;;14.38;9.77;;;;;;;9.71;75.22;94200.84;5101418;28;20201;-71
2021/12/05 11:55:31;;;;;;;15.25;9.77;;;;;;;9.61;75.27;94203.88;5100731;28;20193;-70
2021/12/05 11:57:58;;;;;;;13.75;9.15;;;;;;;9.49;76.00;94193.34;5100442;28;20232;-71
2021/12/05 12:00:28;;;;;;;11.38;9.68;;;;;;;9.76;74.91;94198.09;5100394;28;20205;-68
2021/12/05 12:02:56;;;;;;;12.65;8.98;;;;;;;9.68;74.38;94198.44;5100427;28;20664;-69
2021/12/05 12:05:26;;;;;;;14.02;9.85;;;;;;;9.57;75.25;94185.41;5100084;28;20279;-70
2021/12/05 12:08:00;;;;;;;13.27;9.00;;;;;;;9.63;74.81;94181.78;5100607;28;20212;-70
2021/12/05 12:10:31;;;;;;;18.95;9.85;;;;;;;9.69;74.88;94179.78;5099722;28;20582;-70
2021/12/05 12:13:02;;;;;;;17.70;10.20;;;;;;;9.64;75.04;94183.44;5100591;28;20200;-69
2021/12/05 12:15:31;;;;;;;13.82;9.63;;;;;;;9.59;75.15;94182.81;5099853;28;20189;-69
2021/12/05 12:18:07;;;;;;;13.73;9.85;;;;;;;9.51;75.17;94178.06;5100824;28;20229;-70
2021/12/05 12:20:36;;;;;;;18.60;10.15;;;;;;;9.49;75.36;94182.38;5099200;28;20188;-70
2021/12/05 12:23:04;;;;;;;16.05;10.38;;;;;;;9.63;74.70;94180.09;5099929;28;20606;-70
2021/12/05 12:25:38;;;;;;;10.93;8.35;;;;;;;9.73;74.46;94166.09;5099515;28;20211;-70
2021/12/05 12:28:06;;;;;;;12.73;10.30;;;;;;;9.80;74.07;94171.72;5100664;28;20200;-70
2021/12/05 12:30:37;;;;;;;14.52;10.02;;;;;;;9.79;74.15;94162.47;5099354;28;20205;-69
2021/12/05 12:33:08;;;;;;;14.10;8.50;;;;;;;9.70;73.71;94165.41;5100068;28;20675;-69
2021/12/05 12:35:36;;;;;;;16.02;8.98;;;;;;;9.64;74.41;94165.69;5099429;28;20185;-69
2021/12/05 12:38:07;;;;;;;16.08;10.25;;;;;;;9.58;74.03;94161.69;5100500;28;20251;-71
2021/12/05 12:40:42;;;;;;;17.75;9.90;;;;;;;9.48;74.91;94163.81;5099284;28;20197;-69
2021/12/05 12:43:30;;;;;;;16.45;9.05;;;;;;;9.54;74.29;94165.25;5100326;28;20207;-71
2021/12/05 12:45:57;;;;;;;12.45;8.13;;;;;;;9.38;74.58;94154.97;5099414;28;20197;-70
2021/12/05 12:48:29;;;;;;;15.43;9.60;;;;;;;9.42;74.63;94155.63;5100172;28;20615;-75
2021/12/05 12:50:56;;;;;;;9.13;8.18;;;;;;;9.50;74.41;94148.53;5099505;28;20197;-76
2021/12/05 12:53:27;;;;;;;18.83;8.77;;;;;;;9.58;74.19;94148.19;5100402;28;20197;-74
2021/12/05 12:56:00;;;;;;;14.20;8.93;;;;;;;9.53;73.80;94149.22;5098937;28;20208;-75
2021/12/05 12:58:42;;;;;;;14.43;8.95;;;;;;;9.67;74.45;94151.13;5100059;28;20220;-74
2021/12/05 13:01:18;;;;;;;13.38;8.65;;;;;;;9.57;75.08;94154.97;5100531;28;20224;-75
2021/12/05 13:09:57;;;;;;;12.38;8.80;;;;;;;9.70;74.57;94153.53;4999924;28;20216;-74
2021/12/05 13:10:17;;;;;;;10.35;7.25;;;;;;;9.52;75.25;94146.75;5098095;27;20281;-74
2021/12/05 13:12:56;;;;;;;12.73;9.27;;;;;;;9.52;75.86;94149.28;5098922;28;20197;-74
2021/12/05 13:15:29;;;;;;;14.63;9.40;;;;;;;9.51;76.73;94137.50;5100593;28;20204;-74
2021/12/05 13:17:59;;;;;;;10.80;8.23;;;;;;;9.52;77.52;94141.69;5100142;28;20327;-74
2021/12/05 13:20:29;;;;;;;13.38;8.88;;;;;;;9.46;77.66;94131.78;5099190;28;20662;-74
2021/12/05 13:23:07;;;;;;;10.80;9.18;;;;;;;9.49;77.80;94132.47;5098620;28;20288;-74
2021/12/05 13:25:37;;;;;;;12.10;8.40;;;;;;;9.41;77.93;94138.78;5102694;28;20201;-74
2021/12/05 13:28:34;;;;;;;13.70;9.88;;;;;;;9.37;78.67;94144.91;5102533;28;20205;-74
2021/12/05 13:31:22;;;;;;;14.00;9.32;;;;;;;9.43;78.20;94131.91;5103739;28;20280;-74
2021/12/05 13:33:49;;;;;;;13.73;9.32;;;;;;;9.36;78.64;94136.47;5103868;28;20204;-75
2021/12/05 13:36:32;;;;;;;14.32;10.13;;;;;;;9.23;79.36;94132.78;5103880;28;20208;-74
2021/12/05 13:38:59;;;;;;;16.10;10.38;;;;;;;9.15;79.15;94132.31;5102696;27;20327;-74
2021/12/05 13:41:29;;;;;;;9.23;7.85;;;;;;;9.10;78.89;94139.28;5102649;28;20200;-73
2021/12/05 13:44:01;;;;;;;10.88;8.27;;;;;;;9.19;78.29;94131.28;5103141;28;20209;-74
2021/12/05 13:46:37;;;;;;;12.27;8.27;;;;;;;9.18;78.15;94134.69;5102644;28;20208;-74
2021/12/05 13:49:32;;;;;;;12.15;9.23;;;;;;;9.05;78.64;94136.13;5103286;27;20193;-74
2021/12/05 13:52:32;;;;;;;10.60;8.07;;;;;;;9.14;77.96;94121.38;5101967;28;20292;-74
2021/12/05 13:55:34;;;;;;;14.98;7.93;;;;;;;9.18;77.52;94122.03;5103749;28;20201;-74
2021/12/05 13:58:22;;;;;;;9.98;7.53;;;;;;;9.22;76.67;94133.69;5101901;28;20232;-74
2021/12/05 14:00:55;;;;;;;10.70;7.60;;;;;;;9.07;77.29;94136.88;5101891;28;20244;-73
2021/12/05 14:03:51;;;;;;;9.48;8.52;;;;;;;9.00;78.01;94127.88;5102168;28;20289;-73
2021/12/05 14:06:27;;;;;;;13.07;10.27;;;;;;;8.95;78.23;94129.78;5102997;28;20272;-74
2021/12/05 14:08:56;;;;;;;12.43;9.50;;;;;;;8.97;78.25;94136.44;5101602;28;20209;-74
2021/12/05 14:11:24;;;;;;;12.05;8.65;;;;;;;8.94;77.90;94136.56;5102954;28;20254;-74
2021/12/05 14:13:51;;;;;;;14.52;9.82;;;;;;;8.92;78.05;94145.13;5102295;28;20582;-73
2021/12/05 14:16:20;;;;;;;12.25;8.73;;;;;;;8.79;77.70;94138.03;5101576;28;20304;-75
2021/12/05 14:18:47;;;;;;;10.45;8.55;;;;;;;8.67;78.16;94135.16;5101800;28;20628;-74
2021/12/05 14:21:16;;;;;;;12.23;9.38;;;;;;;8.52;79.09;94136.63;5102528;28;21332;-74
2021/12/05 14:23:48;;;;;;;16.38;10.40;;;;;;;8.56;78.83;94132.28;5101338;28;20212;-73
2021/12/05 14:26:16;;;;;;;17.05;11.38;;;;;;;8.42;79.33;94131.09;5101988;28;20201;-74
2021/12/05 14:28:43;;;;;;;17.08;11.13;;;;;;;8.32;80.25;94139.09;5102653;28;20819;-74
2021/12/05 14:31:10;;;;;;;17.98;10.00;;;;;;;8.48;79.68;94135.09;5101388;28;20258;-74
2021/12/05 14:33:50;;;;;;;16.52;10.85;;;;;;;8.39;80.66;94140.56;5101216;28;20209;-74
2021/12/05 14:36:28;;;;;;;15.10;10.70;;;;;;;8.24;80.41;94141.09;5102860;28;20510;-74
2021/12/05 14:39:11;;;;;;;14.40;10.35;;;;;;;8.17;81.49;94141.34;5101277;28;20702;-74
2021/12/05 14:41:39;;;;;;;18.42;10.48;;;;;;;8.23;81.21;94141.97;5101233;28;20208;-73
2021/12/05 14:44:07;;;;;;;15.63;10.88;;;;;;;8.14;82.23;94135.59;5100880;28;20204;-74
2021/12/05 14:46:44;;;;;;;18.02;10.85;;;;;;;8.12;82.62;94133.13;5102587;28;20225;-74
2021/12/05 14:49:13;;;;;;;15.45;10.77;;;;;;;8.07;82.37;94147.66;5101237;28;20208;-74
2021/12/05 14:51:41;;;;;;;17.60;11.43;;;;;;;7.95;82.34;94135.47;5102066;28;20205;-69
2021/12/05 14:54:09;;;;;;;16.40;11.07;;;;;;;7.97;83.16;94153.13;5101722;28;20258;-69
2021/12/05 14:56:38;;;;;;;24.95;11.75;;;;;;;7.96;82.29;94152.28;5100928;28;20193;-69
2021/12/05 14:59:08;;;;;;;17.05;12.57;;;;;;;7.76;82.78;94162.34;5102351;28;20265;-71
2021/12/05 15:01:37;;;;;;;21.73;13.73;;;;;;;7.67;84.19;94160.16;5100403;28;20201;-70
2021/12/05 15:04:06;;;;;;;19.15;12.95;;;;;;;7.56;83.60;94154.66;5101420;28;20640;-69
2021/12/05 15:06:39;;;;;;;21.15;14.18;;;;;;;7.55;83.98;94158.06;5100693;28;20211;-69
2021/12/05 15:09:16;;;;;;;24.67;14.13;;;;;;;7.66;83.08;94169.44;5100284;28;20240;-71
2021/12/05 15:11:54;;;;;;;21.05;12.63;;;;;;;7.68;83.36;94159.25;5100688;28;20699;-72
2021/12/05 15:14:21;;;;;;;19.83;10.82;;;;;;;7.34;84.76;94163.00;5101145;28;20207;-70
2021/12/05 15:16:53;;;;;;;23.05;12.00;;;;;;;7.23;85.22;94154.97;5101634;28;20675;-69
2021/12/05 15:19:20;;;;;;;18.20;12.52;;;;;;;7.36;85.31;94162.97;5100299;28;20239;-69
2021/12/05 15:21:49;;;;;;;16.13;11.55;;;;;;;7.29;85.09;94159.00;5102023;28;20224;-69
2021/12/05 15:24:19;;;;;;;18.77;11.48;;;;;;;7.13;85.41;94164.59;5101375;28;20273;-69
2021/12/05 15:26:46;;;;;;;18.75;11.15;;;;;;;7.10;85.60;94168.94;5100291;28;20201;-71
2021/12/05 15:29:13;;;;;;;17.05;11.18;;;;;;;7.06;86.63;94185.88;5100174;28;20212;-71
2021/12/05 15:31:43;;;;;;;23.58;11.38;;;;;;;6.96;86.46;94171.09;5101579;27;20623;-71
2021/12/05 15:34:27;;;;;;;18.40;11.68;;;;;;;6.62;88.23;94177.25;5099450;28;20216;-70
2021/12/05 15:36:56;;;;;;;20.55;11.48;;;;;;;6.40;88.66;94166.22;5101242;28;20236;-71
2021/12/05 15:39:26;;;;;;;20.25;12.35;;;;;;;6.48;88.99;94174.34;5100126;28;20251;-70
2021/12/05 15:41:55;;;;;;;16.08;10.70;;;;;;;6.55;88.59;94180.84;5101314;27;20811;-71
2021/12/05 15:44:39;;;;;;;18.70;11.85;;;;;;;6.59;89.02;94189.97;5100469;28;20212;-71
2021/12/05 15:47:09;;;;;;;13.65;11.13;;;;;;;6.61;89.14;94190.75;5099397;28;20655;-70
2021/12/05 15:49:53;;;;;;;19.60;11.80;;;;;;;6.37;89.61;94197.41;5099691;28;21212;-69
2021/12/05 15:52:27;;;;;;;19.27;11.38;;;;;;;6.28;90.53;94210.31;5101279;28;20211;-69
2021/12/05 15:54:56;;;;;;;21.63;12.48;;;;;;;6.27;90.59;94205.31;5098571;28;20192;-71
2021/12/05 15:57:30;;;;;;;24.60;13.30;;;;;;;6.52;90.93;94216.28;5099188;28;20212;-72
2021/12/05 15:59:59;;;;;;;27.08;13.82;;;;;;;6.73;91.35;94210.53;5099932;28;20222;-79
2021/12/05 16:02:26;;;;;;;17.98;11.55;;;;;;;6.64;88.92;94218.44;5100836;28;20209;-69
2021/12/05 16:04:56;;;;;;;16.77;10.88;;;;;;;6.55;89.46;94213.66;5100230;28;20205;-69
2021/12/05 16:07:26;;;;;;;18.10;11.33;;;;;;;6.37;90.01;94221.81;5099231;28;20201;-70
2021/12/05 16:10:07;;;;;;;18.30;11.63;;;;;;;6.36;90.04;94231.09;5099068;28;20675;-69
2021/12/05 16:12:39;;;;;;;18.08;11.70;;;;;;;6.25;90.09;94230.56;5099834;28;20204;-68